Time,TemperatureF,DewpointF,PressureIn,WindDirection,WindDirectionDegrees,WindSpeedMPH,WindSpeedGustMPH,Humidity,HourlyPrecipIn,Conditions,Clouds,dailyrainin,SoftwareType,DateUTC
2013-07-08 00:02:00,67.0,65.5,30.04,SSW,193,2.0,5.0,95,0.00,,,0.26,Wunderground v.1.15,2013-07-08 04:02:00,
2013-07-08 00:04:00,67.0,65.5,30.04,SSW,211,2.0,5.0,95,0.00,,,0.00,Wunderground v.1.15,2013-07-08 04:04:00,
2013-07-08 00:06:00,67.0,65.5,30.04,WSW,241,3.0,5.0,95,0.00,,,0.00,Wunderground v.1.15,2013-07-08 04:06:00,
2013-07-08 00:10:00,66.9,65.4,30.04,SW,217,3.0,6.0,95,0.00,,,0.00,Wunderground v.1.15,2013-07-08 04:10:00,
2013-07-08 00:14:00,66.8,65.3,30.04,SW,223,3.0,6.0,95,0.00,,,0.00,Wunderground v.1.15,2013-07-08 04:14:00,
2013-07-08 00:20:00,66.8,65.3,30.04,SW,227,3.0,4.0,95,0.00,,,0.00,Wunderground v.1.15,2013-07-08 04:20:00,
2013-07-08 00:26:00,66.8,65.3,30.04,SW,218,3.0,4.0,95,0.00,,,0.00,Wunderground v.1.15,2013-07-08 04:26:00,
2013-07-08 00:32:00,66.7,65.2,30.05,SSW,212,2.0,2.0,95,0.00,,,0.00,Wunderground v.1.15,2013-07-08 04:32:00,
2013-07-08 00:38:00,66.8,65.3,30.04,WSW,240,2.0,3.0,95,0.00,,,0.00,Wunderground v.1.15,2013-07-08 04:38:00,
2013-07-08 00:44:00,66.7,65.2,30.04,SW,234,1.0,2.0,95,0.00,,,0.00,Wunderground v.1.15,2013-07-08 04:44:00,
2013-07-08 00:50:00,66.7,65.2,30.04,SW,234,0.0,2.0,95,0.00,,,0.00,Wunderground v.1.15,2013-07-08 04:50:00,
2013-07-08 00:56:00,66.5,65.0,30.04,SW,234,0.0,2.0,95,0.00,,,0.00,Wunderground v.1.15,2013-07-08 04:56:00,
2013-07-08 01:02:00,66.3,64.8,30.04,SW,224,0.0,0.0,95,0.00,,,0.00,Wunderground v.1.15,2013-07-08 05:02:00,
2013-07-08 01:08:00,66.2,64.7,30.04,SW,224,0.0,0.0,95,0.00,,,0.00,Wunderground v.1.15,2013-07-08 05:08:00,
2013-07-08 01:14:00,66.1,64.6,30.03,SW,224,0.0,0.0,95,0.00,,,0.00,Wunderground v.1.15,2013-07-08 05:14:00,
2013-07-08 01:20:00,66.2,64.7,30.04,SW,224,0.0,0.0,95,0.00,,,0.00,Wunderground v.1.15,2013-07-08 05:20:00,
2013-07-08 01:26:00,66.1,64.6,30.03,SW,220,1.0,5.0,95,0.00,,,0.00,Wunderground v.1.15,2013-07-08 05:26:00,
2013-07-08 01:32:00,65.8,64.3,30.03,SW,220,1.0,2.0,95,0.00,,,0.00,Wunderground v.1.15,2013-07-08 05:32:00,
2013-07-08 01:38:00,65.6,63.8,30.03,SW,220,1.0,3.0,94,0.00,,,0.00,Wunderground v.1.15,2013-07-08 05:38:00,
2013-07-08 01:44:00,65.5,63.7,30.03,SW,219,1.0,3.0,94,0.00,,,0.00,Wunderground v.1.15,2013-07-08 05:44:00,
2013-07-08 01:50:00,65.4,63.6,30.03,SW,222,1.0,2.0,94,0.00,,,0.00,Wunderground v.1.15,2013-07-08 05:50:00,
2013-07-08 01:56:00,65.2,63.4,30.03,SW,222,1.0,3.0,94,0.00,,,0.00,Wunderground v.1.15,2013-07-08 05:56:00,
2013-07-08 02:02:00,65.0,63.2,30.03,SW,222,1.0,2.0,94,0.00,,,0.00,Wunderground v.1.15,2013-07-08 06:02:00,
2013-07-08 02:08:00,65.1,63.6,30.02,SW,223,1.0,3.0,95,0.00,,,0.00,Wunderground v.1.15,2013-07-08 06:08:00,
2013-07-08 02:14:00,65.1,63.6,30.03,SW,221,3.0,4.0,95,0.00,,,0.00,Wunderground v.1.15,2013-07-08 06:14:00,
2013-07-08 02:20:00,65.0,63.5,30.03,SSW,198,4.0,4.0,95,0.00,,,0.00,Wunderground v.1.15,2013-07-08 06:20:00,
2013-07-08 02:26:00,64.9,63.4,30.03,SW,215,3.0,5.0,95,0.00,,,0.00,Wunderground v.1.15,2013-07-08 06:26:00,
2013-07-08 02:32:00,65.0,63.5,30.03,SSW,212,2.0,3.0,95,0.00,,,0.00,Wunderground v.1.15,2013-07-08 06:32:00,
2013-07-08 02:38:00,65.0,63.5,30.03,SSW,213,1.0,3.0,95,0.00,,,0.00,Wunderground v.1.15,2013-07-08 06:38:00,
2013-07-08 02:44:00,65.0,63.5,30.04,SSW,209,1.0,1.0,95,0.00,,,0.00,Wunderground v.1.15,2013-07-08 06:44:00,
2013-07-08 02:50:00,65.3,63.8,30.03,WSW,245,1.0,2.0,95,0.00,,,0.00,Wunderground v.1.15,2013-07-08 06:50:00,
2013-07-08 02:56:00,65.4,63.9,30.04,SW,234,2.0,2.0,95,0.00,,,0.00,Wunderground v.1.15,2013-07-08 06:56:00,
2013-07-08 03:02:00,65.2,63.7,30.04,SW,219,3.0,3.0,95,0.00,,,0.00,Wunderground v.1.15,2013-07-08 07:02:00,
2013-07-08 03:08:00,65.0,63.5,30.04,SW,235,3.0,5.0,95,0.00,,,0.00,Wunderground v.1.15,2013-07-08 07:08:00,
2013-07-08 03:14:00,65.1,63.6,30.04,SW,235,2.0,3.0,95,0.00,,,0.00,Wunderground v.1.15,2013-07-08 07:14:00,
2013-07-08 03:20:00,64.8,63.3,30.04,SW,231,2.0,2.0,95,0.00,,,0.00,Wunderground v.1.15,2013-07-08 07:20:00,
2013-07-08 03:26:00,64.7,63.2,30.04,SW,226,2.0,3.0,95,0.00,,,0.00,Wunderground v.1.15,2013-07-08 07:26:00,
2013-07-08 03:32:00,64.5,63.0,30.04,SW,227,2.0,3.0,95,0.00,,,0.00,Wunderground v.1.15,2013-07-08 07:32:00,
2013-07-08 03:38:00,64.5,63.0,30.04,SW,227,2.0,3.0,95,0.00,,,0.00,Wunderground v.1.15,2013-07-08 07:38:00,
2013-07-08 03:44:00,64.7,63.2,30.04,SW,226,1.0,2.0,95,0.00,,,0.00,Wunderground v.1.15,2013-07-08 07:44:00,
2013-07-08 03:50:00,64.6,63.1,30.04,SW,227,1.0,1.0,95,0.00,,,0.00,Wunderground v.1.15,2013-07-08 07:50:00,
2013-07-08 03:56:00,64.4,62.9,30.04,SW,226,1.0,2.0,95,0.00,,,0.00,Wunderground v.1.15,2013-07-08 07:56:00,
2013-07-08 04:02:00,64.3,62.8,30.04,SW,226,1.0,1.0,95,0.00,,,0.00,Wunderground v.1.15,2013-07-08 08:02:00,
2013-07-08 04:08:00,64.2,62.7,30.04,SW,227,0.0,1.0,95,0.00,,,0.00,Wunderground v.1.15,2013-07-08 08:08:00,
2013-07-08 04:14:00,63.9,62.4,30.04,SW,226,0.0,1.0,95,0.00,,,0.00,Wunderground v.1.15,2013-07-08 08:14:00,
2013-07-08 04:20:00,63.7,62.2,30.04,SW,227,1.0,1.0,95,0.00,,,0.00,Wunderground v.1.15,2013-07-08 08:20:00,
2013-07-08 04:26:00,63.9,62.4,30.04,SW,226,0.0,2.0,95,0.00,,,0.00,Wunderground v.1.15,2013-07-08 08:26:00,
2013-07-08 04:32:00,64.1,62.9,30.04,SW,226,0.0,0.0,96,0.00,,,0.00,Wunderground v.1.15,2013-07-08 08:32:00,
2013-07-08 04:38:00,64.1,62.9,30.04,SW,226,0.0,0.0,96,0.00,,,0.00,Wunderground v.1.15,2013-07-08 08:38:00,
2013-07-08 04:44:00,64.1,62.9,30.04,SW,226,0.0,0.0,96,0.00,,,0.00,Wunderground v.1.15,2013-07-08 08:44:00,
2013-07-08 04:50:00,64.3,63.1,30.04,SW,226,0.0,0.0,96,0.00,,,0.00,Wunderground v.1.15,2013-07-08 08:50:00,
2013-07-08 04:56:00,64.6,63.4,30.04,SW,227,1.0,1.0,96,0.00,,,0.00,Wunderground v.1.15,2013-07-08 08:56:00,
2013-07-08 05:02:00,64.6,63.4,30.04,SW,227,1.0,1.0,96,0.00,,,0.00,Wunderground v.1.15,2013-07-08 09:02:00,
2013-07-08 05:08:00,64.5,63.3,30.05,SW,227,1.0,1.0,96,0.00,,,0.00,Wunderground v.1.15,2013-07-08 09:08:00,
2013-07-08 05:14:00,64.3,63.1,30.05,SW,234,1.0,1.0,96,0.00,,,0.00,Wunderground v.1.15,2013-07-08 09:14:00,
2013-07-08 05:20:00,64.2,63.0,30.04,SW,234,0.0,0.0,96,0.00,,,0.00,Wunderground v.1.15,2013-07-08 09:20:00,
2013-07-08 05:26:00,63.8,62.3,30.05,SW,234,1.0,1.0,95,0.00,,,0.00,Wunderground v.1.15,2013-07-08 09:26:00,
2013-07-08 05:32:00,63.7,62.2,30.05,SW,220,2.0,3.0,95,0.00,,,0.00,Wunderground v.1.15,2013-07-08 09:32:00,
2013-07-08 05:38:00,63.8,62.6,30.05,SW,220,2.0,3.0,96,0.00,,,0.00,Wunderground v.1.15,2013-07-08 09:38:00,
2013-07-08 05:44:00,63.9,62.7,30.05,SW,220,1.0,3.0,96,0.00,,,0.00,Wunderground v.1.15,2013-07-08 09:44:00,
2013-07-08 05:50:00,63.9,62.7,30.05,SW,221,2.0,2.0,96,0.00,,,0.00,Wunderground v.1.15,2013-07-08 09:50:00,
2013-07-08 05:56:00,63.7,62.5,30.05,SW,221,2.0,2.0,96,0.00,,,0.00,Wunderground v.1.15,2013-07-08 09:56:00,
2013-07-08 06:02:00,63.6,62.4,30.05,SW,221,0.0,0.0,96,0.00,,,0.00,Wunderground v.1.15,2013-07-08 10:02:00,
2013-07-08 06:08:00,63.5,62.3,30.05,SW,217,1.0,4.0,96,0.00,,,0.00,Wunderground v.1.15,2013-07-08 10:08:00,
2013-07-08 06:14:00,63.6,62.4,30.05,SW,217,1.0,1.0,96,0.00,,,0.00,Wunderground v.1.15,2013-07-08 10:14:00,
2013-07-08 06:20:00,63.6,62.4,30.06,SW,217,0.0,0.0,96,0.00,,,0.00,Wunderground v.1.15,2013-07-08 10:20:00,
2013-07-08 06:26:00,63.4,62.2,30.06,SW,217,0.0,0.0,96,0.00,,,0.00,Wunderground v.1.15,2013-07-08 10:26:00,
2013-07-08 06:32:00,63.1,61.6,30.06,SW,217,1.0,2.0,95,0.00,,,0.00,Wunderground v.1.15,2013-07-08 10:32:00,
2013-07-08 06:38:00,63.1,61.9,30.06,SW,217,1.0,2.0,96,0.00,,,0.00,Wunderground v.1.15,2013-07-08 10:38:00,
2013-07-08 06:44:00,63.5,62.3,30.05,SW,220,2.0,4.0,96,0.00,,,0.00,Wunderground v.1.15,2013-07-08 10:44:00,
2013-07-08 06:50:00,63.8,62.6,30.06,SW,225,4.0,4.0,96,0.00,,,0.00,Wunderground v.1.15,2013-07-08 10:50:00,
2013-07-08 06:56:00,64.3,63.1,30.05,SW,227,2.0,4.0,96,0.00,,,0.00,Wunderground v.1.15,2013-07-08 10:56:00,
2013-07-08 07:02:00,64.9,64.0,30.05,SW,226,1.0,2.0,97,0.00,,,0.00,Wunderground v.1.15,2013-07-08 11:02:00,
2013-07-08 07:08:00,65.4,64.5,30.06,SSW,210,1.0,5.0,97,0.00,,,0.00,Wunderground v.1.15,2013-07-08 11:08:00,
2013-07-08 07:14:00,66.2,65.3,30.06,SSW,203,3.0,5.0,97,0.00,,,0.00,Wunderground v.1.15,2013-07-08 11:14:00,
2013-07-08 07:20:00,67.0,66.1,30.06,SSW,210,2.0,2.0,97,0.00,,,0.00,Wunderground v.1.15,2013-07-08 11:20:00,
2013-07-08 07:26:00,67.9,66.7,30.06,SSW,211,0.0,2.0,96,0.00,,,0.00,Wunderground v.1.15,2013-07-08 11:26:00,
2013-07-08 07:32:00,67.8,66.3,30.06,SSW,200,1.0,1.0,95,0.00,,,0.00,Wunderground v.1.15,2013-07-08 11:32:00,
2013-07-08 07:38:00,66.8,64.4,30.06,SSW,202,1.0,3.0,92,0.00,,,0.00,Wunderground v.1.15,2013-07-08 11:38:00,
2013-07-08 07:44:00,66.4,63.7,30.06,SW,228,1.0,1.0,91,0.00,,,0.00,Wunderground v.1.15,2013-07-08 11:44:00,
2013-07-08 07:50:00,66.1,63.4,30.06,SW,218,3.0,3.0,91,0.00,,,0.00,Wunderground v.1.15,2013-07-08 11:50:00,
2013-07-08 07:56:00,66.5,63.8,30.06,SW,232,3.0,3.0,91,0.00,,,0.00,Wunderground v.1.15,2013-07-08 11:56:00,
2013-07-08 08:02:00,66.5,63.8,30.06,SW,223,2.0,2.0,91,0.00,,,0.00,Wunderground v.1.15,2013-07-08 12:02:00,
2013-07-08 08:08:00,66.7,63.7,30.06,SW,224,1.0,2.0,90,0.00,,,0.00,Wunderground v.1.15,2013-07-08 12:08:00,
2013-07-08 08:14:00,66.8,63.8,30.06,WSW,239,1.0,2.0,90,0.00,,,0.00,Wunderground v.1.15,2013-07-08 12:14:00,
2013-07-08 08:20:00,66.8,63.8,30.06,WSW,248,1.0,1.0,90,0.00,,,0.00,Wunderground v.1.15,2013-07-08 12:20:00,
2013-07-08 08:26:00,66.7,63.7,30.07,WSW,251,2.0,3.0,90,0.00,,,0.00,Wunderground v.1.15,2013-07-08 12:26:00,
2013-07-08 08:32:00,67.0,64.0,30.07,SW,229,1.0,1.0,90,0.00,,,0.00,Wunderground v.1.15,2013-07-08 12:32:00,
2013-07-08 08:38:00,67.4,64.4,30.07,SSW,194,1.0,3.0,90,0.00,,,0.00,Wunderground v.1.15,2013-07-08 12:38:00,
2013-07-08 08:44:00,67.4,64.4,30.07,SSW,192,4.0,4.0,90,0.00,,,0.00,Wunderground v.1.15,2013-07-08 12:44:00,
2013-07-08 08:50:00,67.5,64.1,30.07,SSW,209,4.0,4.0,89,0.00,,,0.00,Wunderground v.1.15,2013-07-08 12:50:00,
2013-07-08 08:56:00,67.8,64.4,30.07,SSW,192,4.0,6.0,89,0.00,,,0.00,Wunderground v.1.15,2013-07-08 12:56:00,
2013-07-08 09:02:00,68.3,64.9,30.07,SSW,213,4.0,4.0,89,0.00,,,0.00,Wunderground v.1.15,2013-07-08 13:02:00,
2013-07-08 09:08:00,68.6,65.2,30.07,SW,221,3.0,5.0,89,0.00,,,0.00,Wunderground v.1.15,2013-07-08 13:08:00,
2013-07-08 09:14:00,69.4,65.4,30.08,SW,219,3.0,5.0,87,0.00,,,0.00,Wunderground v.1.15,2013-07-08 13:14:00,
2013-07-08 09:20:00,70.4,66.0,30.08,SW,231,2.0,2.0,86,0.00,,,0.00,Wunderground v.1.15,2013-07-08 13:20:00,
2013-07-08 09:26:00,71.0,66.6,30.08,SSW,213,3.0,8.0,86,0.00,,,0.00,Wunderground v.1.15,2013-07-08 13:26:00,
2013-07-08 09:32:00,70.8,66.1,30.08,SW,216,4.0,4.0,85,0.00,,,0.00,Wunderground v.1.15,2013-07-08 13:32:00,
2013-07-08 09:38:00,71.0,66.3,30.08,SW,215,3.0,4.0,85,0.00,,,0.01,Wunderground v.1.15,2013-07-08 13:38:00,
2013-07-08 09:44:00,71.1,66.4,30.08,SSW,204,2.0,4.0,85,0.00,,,0.01,Wunderground v.1.15,2013-07-08 13:44:00,
2013-07-08 09:50:00,71.4,66.3,30.09,SSW,207,3.0,4.0,84,0.00,,,0.01,Wunderground v.1.15,2013-07-08 13:50:00,
2013-07-08 09:56:00,70.8,66.1,30.09,SW,224,3.0,4.0,85,0.00,,,0.01,Wunderground v.1.15,2013-07-08 13:56:00,
2013-07-08 10:02:00,71.1,66.4,30.09,SSW,207,2.0,2.0,85,0.00,,,0.01,Wunderground v.1.15,2013-07-08 14:02:00,
2013-07-08 10:08:00,71.0,65.9,30.09,SW,222,3.0,7.0,84,0.00,,,0.01,Wunderground v.1.15,2013-07-08 14:08:00,
2013-07-08 10:14:00,70.2,65.5,30.10,SW,235,4.0,4.0,85,0.00,,,0.01,Wunderground v.1.15,2013-07-08 14:14:00,
2013-07-08 10:20:00,69.8,65.4,30.09,SSW,213,2.0,2.0,86,0.00,,,0.01,Wunderground v.1.15,2013-07-08 14:20:00,
2013-07-08 10:26:00,70.7,65.6,30.09,SW,214,2.0,4.0,84,0.00,,,0.01,Wunderground v.1.15,2013-07-08 14:26:00,
2013-07-08 10:32:00,71.1,65.7,30.09,South,181,3.0,4.0,83,0.00,,,0.01,Wunderground v.1.15,2013-07-08 14:32:00,
2013-07-08 10:38:00,71.5,66.1,30.09,South,190,3.0,4.0,83,0.00,,,0.01,Wunderground v.1.15,2013-07-08 14:38:00,
2013-07-08 10:44:00,71.9,66.5,30.09,South,180,2.0,2.0,83,0.00,,,0.01,Wunderground v.1.15,2013-07-08 14:44:00,
2013-07-08 10:50:00,72.6,66.4,30.09,South,176,2.0,7.0,81,0.00,,,0.01,Wunderground v.1.15,2013-07-08 14:50:00,
2013-07-08 10:56:00,73.0,66.5,30.09,SW,215,2.0,7.0,80,0.00,,,0.01,Wunderground v.1.15,2013-07-08 14:56:00,
2013-07-08 11:02:00,73.8,66.5,30.09,South,186,3.0,5.0,78,0.00,,,0.01,Wunderground v.1.15,2013-07-08 15:02:00,
2013-07-08 11:08:00,74.6,66.9,30.09,SW,232,4.0,8.0,77,0.00,,,0.01,Wunderground v.1.15,2013-07-08 15:08:00,
2013-07-08 11:14:00,74.7,66.6,30.09,South,176,5.0,6.0,76,0.00,,,0.01,Wunderground v.1.15,2013-07-08 15:14:00,
2013-07-08 11:20:00,75.3,66.8,30.09,South,178,5.0,5.0,75,0.00,,,0.01,Wunderground v.1.15,2013-07-08 15:20:00,
2013-07-08 11:26:00,75.7,67.2,30.09,South,188,4.0,6.0,75,0.00,,,0.01,Wunderground v.1.15,2013-07-08 15:26:00,
2013-07-08 11:32:00,75.9,68.2,30.09,South,173,2.0,2.0,77,0.00,,,0.01,Wunderground v.1.15,2013-07-08 15:32:00,
2013-07-08 11:38:00,76.9,67.6,30.08,SSW,200,2.0,6.0,73,0.00,,,0.01,Wunderground v.1.15,2013-07-08 15:38:00,
2013-07-08 11:44:00,77.7,68.4,30.08,South,170,2.0,3.0,73,0.00,,,0.01,Wunderground v.1.15,2013-07-08 15:44:00,
2013-07-08 11:50:00,78.6,69.6,30.08,South,171,2.0,7.0,74,0.00,,,0.01,Wunderground v.1.15,2013-07-08 15:50:00,
2013-07-08 11:56:00,79.2,68.6,30.08,SW,214,3.0,7.0,70,0.00,,,0.01,Wunderground v.1.15,2013-07-08 15:56:00,
2013-07-08 12:02:00,78.8,68.2,30.08,South,180,2.0,6.0,70,0.00,,,0.01,Wunderground v.1.15,2013-07-08 16:02:00,
2013-07-08 12:08:00,79.7,69.5,30.08,SW,229,3.0,6.0,71,0.00,,,0.01,Wunderground v.1.15,2013-07-08 16:08:00,
2013-07-08 12:14:00,78.8,70.2,30.07,WSW,244,2.0,3.0,75,0.00,,,0.01,Wunderground v.1.15,2013-07-08 16:14:00,
2013-07-08 12:20:00,79.7,69.5,30.07,SW,214,3.0,8.0,71,0.00,,,0.01,Wunderground v.1.15,2013-07-08 16:20:00,
2013-07-08 12:26:00,80.0,66.7,30.07,West,271,6.0,10.0,64,0.00,,,0.01,Wunderground v.1.15,2013-07-08 16:26:00,
2013-07-08 12:32:00,79.8,67.0,30.07,SW,229,6.0,12.0,65,0.00,,,0.01,Wunderground v.1.15,2013-07-08 16:32:00,
2013-07-08 12:38:00,80.2,66.9,30.07,SW,235,8.0,12.0,64,0.00,,,0.01,Wunderground v.1.15,2013-07-08 16:38:00,
2013-07-08 12:44:00,81.0,66.3,30.07,WSW,237,8.0,10.0,61,0.00,,,0.01,Wunderground v.1.15,2013-07-08 16:44:00,
2013-07-08 12:50:00,80.9,66.2,30.07,SW,227,8.0,8.0,61,0.00,,,0.01,Wunderground v.1.15,2013-07-08 16:50:00,
2013-07-08 12:56:00,80.9,65.7,30.07,SW,228,7.0,13.0,60,0.00,,,0.01,Wunderground v.1.15,2013-07-08 16:56:00,
2013-07-08 13:02:00,80.7,66.5,30.07,West,272,6.0,7.0,62,0.00,,,0.01,Wunderground v.1.15,2013-07-08 17:02:00,
2013-07-08 13:08:00,80.9,66.7,30.06,WSW,242,5.0,12.0,62,0.00,,,0.01,Wunderground v.1.15,2013-07-08 17:08:00,
2013-07-08 13:14:00,80.7,65.0,30.06,WSW,239,6.0,6.0,59,0.00,,,0.01,Wunderground v.1.15,2013-07-08 17:14:00,
2013-07-08 13:20:00,79.7,66.4,30.06,NW,310,5.0,7.0,64,0.00,,,0.01,Wunderground v.1.15,2013-07-08 17:20:00,
2013-07-08 13:28:00,80.6,67.3,30.06,WSW,238,7.0,10.0,64,0.00,,,0.01,Wunderground v.1.15,2013-07-08 17:28:00,
2013-07-08 13:34:00,81.1,66.4,30.06,WNW,282,7.0,9.0,61,0.00,,,0.01,Wunderground v.1.15,2013-07-08 17:34:00,
2013-07-08 13:40:00,80.1,65.0,30.06,West,272,6.0,7.0,60,0.00,,,0.01,Wunderground v.1.15,2013-07-08 17:40:00,
2013-07-08 13:46:00,80.5,65.8,30.06,NW,319,7.0,12.0,61,0.00,,,0.01,Wunderground v.1.15,2013-07-08 17:46:00,
2013-07-08 13:52:00,80.8,66.6,30.06,West,280,7.0,8.0,62,0.00,,,0.01,Wunderground v.1.15,2013-07-08 17:52:00,
2013-07-08 13:58:00,81.8,66.1,30.05,SSW,211,6.0,10.0,59,0.00,,,0.01,Wunderground v.1.15,2013-07-08 17:58:00,
2013-07-08 14:04:00,82.8,65.0,30.05,SSW,206,7.0,7.0,55,0.00,,,0.01,Wunderground v.1.15,2013-07-08 18:04:00,
2013-07-08 14:14:00,82.2,67.4,30.05,West,280,6.0,9.0,61,0.00,,,0.01,Wunderground v.1.15,2013-07-08 18:14:00,
2013-07-08 14:20:00,81.9,66.6,30.05,WNW,286,7.0,7.0,60,0.00,,,0.01,Wunderground v.1.15,2013-07-08 18:20:00,
2013-07-08 14:28:00,82.1,65.9,30.05,West,270,7.0,9.0,58,0.00,,,0.01,Wunderground v.1.15,2013-07-08 18:28:00,
2013-07-08 14:34:00,83.0,66.2,30.04,SW,220,7.0,7.0,57,0.00,,,0.01,Wunderground v.1.15,2013-07-08 18:34:00,
2013-07-08 14:42:00,83.0,65.7,30.04,SW,232,5.0,5.0,56,0.00,,,0.01,Wunderground v.1.15,2013-07-08 18:42:00,
2013-07-08 14:48:00,82.5,65.7,30.04,West,263,4.0,7.0,57,0.00,,,0.01,Wunderground v.1.15,2013-07-08 18:48:00,
2013-07-08 14:56:00,83.5,67.7,30.04,WSW,238,4.0,9.0,59,0.00,,,0.01,Wunderground v.1.15,2013-07-08 18:56:00,
2013-07-08 15:02:00,83.8,65.4,30.04,WSW,252,5.0,13.0,54,0.00,,,0.01,Wunderground v.1.15,2013-07-08 19:02:00,
2013-07-08 15:08:00,82.3,66.0,30.04,WSW,237,7.0,13.0,58,0.00,,,0.01,Wunderground v.1.15,2013-07-08 19:08:00,
2013-07-08 15:16:00,84.0,66.1,30.04,SW,232,7.0,9.0,55,0.00,,,0.01,Wunderground v.1.15,2013-07-08 19:16:00,
2013-07-08 15:26:00,82.3,66.0,30.03,West,271,5.0,7.0,58,0.00,,,0.01,Wunderground v.1.15,2013-07-08 19:26:00,
2013-07-08 15:38:00,82.3,66.0,30.04,SW,216,5.0,9.0,58,0.00,,,0.01,Wunderground v.1.15,2013-07-08 19:38:00,
2013-07-08 15:44:00,81.4,65.7,30.04,SW,221,7.0,11.0,59,0.00,,,0.01,Wunderground v.1.15,2013-07-08 19:44:00,
2013-07-08 15:50:00,80.4,65.2,30.03,WSW,241,9.0,10.0,60,0.00,,,0.01,Wunderground v.1.15,2013-07-08 19:50:00,
2013-07-08 15:58:00,81.6,67.3,30.03,SW,224,7.0,10.0,62,0.00,,,0.01,Wunderground v.1.15,2013-07-08 19:58:00,
2013-07-08 16:04:00,81.5,65.3,30.03,West,262,5.0,9.0,58,0.00,,,0.01,Wunderground v.1.15,2013-07-08 20:04:00,
2013-07-08 16:12:00,82.5,65.7,30.03,WSW,251,5.0,5.0,57,0.00,,,0.01,Wunderground v.1.15,2013-07-08 20:12:00,
2013-07-08 16:18:00,82.2,66.0,30.03,WNW,300,5.0,7.0,58,0.00,,,0.01,Wunderground v.1.15,2013-07-08 20:18:00,
2013-07-08 16:24:00,82.4,65.1,30.02,West,270,4.0,4.0,56,0.00,,,0.01,Wunderground v.1.15,2013-07-08 20:24:00,
2013-07-08 16:32:00,83.8,67.4,30.02,SW,233,4.0,6.0,58,0.00,,,0.01,Wunderground v.1.15,2013-07-08 20:32:00,
2013-07-08 16:38:00,83.6,66.8,30.02,WSW,245,5.0,7.0,57,0.00,,,0.01,Wunderground v.1.15,2013-07-08 20:38:00,
2013-07-08 16:46:00,82.7,66.4,30.02,SW,233,6.0,9.0,58,0.00,,,0.01,Wunderground v.1.15,2013-07-08 20:46:00,
2013-07-08 16:56:00,83.3,67.5,30.02,West,281,2.0,4.0,59,0.00,,,0.01,Wunderground v.1.15,2013-07-08 20:56:00,
2013-07-08 17:04:00,83.4,66.6,30.02,West,274,4.0,6.0,57,0.00,,,0.01,Wunderground v.1.15,2013-07-08 21:04:00,
2013-07-08 17:12:00,83.4,68.1,30.02,WSW,252,6.0,9.0,60,0.00,,,0.01,Wunderground v.1.15,2013-07-08 21:12:00,
2013-07-08 17:18:00,82.3,66.0,30.02,WSW,249,8.0,11.0,58,0.00,,,0.01,Wunderground v.1.15,2013-07-08 21:18:00,
2013-07-08 17:26:00,82.0,68.2,30.02,WSW,254,5.0,8.0,63,0.00,,,0.01,Wunderground v.1.15,2013-07-08 21:26:00,
2013-07-08 17:32:00,82.2,67.4,30.02,WSW,245,1.0,2.0,61,0.00,,,0.01,Wunderground v.1.15,2013-07-08 21:32:00,
2013-07-08 17:38:00,81.3,66.1,30.03,SW,231,5.0,10.0,60,0.00,,,0.01,Wunderground v.1.15,2013-07-08 21:38:00,
2013-07-08 17:44:00,80.4,66.6,30.03,West,261,8.0,8.0,63,0.00,,,0.01,Wunderground v.1.15,2013-07-08 21:44:00,
2013-07-08 17:52:00,79.4,67.0,30.03,SW,225,7.0,8.0,66,0.00,,,0.01,Wunderground v.1.15,2013-07-08 21:52:00,
2013-07-08 18:00:00,79.1,67.2,30.03,SW,224,6.0,9.0,67,0.00,,,0.01,Wunderground v.1.15,2013-07-08 22:00:00,
2013-07-08 18:08:00,78.7,66.8,30.03,SW,217,5.0,9.0,67,0.00,,,0.01,Wunderground v.1.15,2013-07-08 22:08:00,
2013-07-08 18:14:00,78.4,67.4,30.03,SW,217,2.0,4.0,69,0.00,,,0.01,Wunderground v.1.15,2013-07-08 22:14:00,
2013-07-08 18:20:00,79.4,67.9,30.03,SW,219,1.0,2.0,68,0.00,,,0.01,Wunderground v.1.15,2013-07-08 22:20:00,
2013-07-08 18:26:00,79.4,67.0,30.03,SW,236,3.0,6.0,66,0.00,,,0.01,Wunderground v.1.15,2013-07-08 22:26:00,
2013-07-08 18:38:00,79.0,67.1,30.02,SW,223,1.0,3.0,67,0.00,,,0.01,Wunderground v.1.15,2013-07-08 22:38:00,
2013-07-08 18:44:00,78.9,67.9,30.03,SW,223,0.0,0.0,69,0.00,,,0.01,Wunderground v.1.15,2013-07-08 22:44:00,
2013-07-08 18:50:00,78.6,68.4,30.02,SW,223,0.0,0.0,71,0.00,,,0.01,Wunderground v.1.15,2013-07-08 22:50:00,
2013-07-08 18:56:00,78.2,68.0,30.02,SW,223,0.0,0.0,71,0.00,,,0.01,Wunderground v.1.15,2013-07-08 22:56:00,
2013-07-08 19:02:00,78.0,69.0,30.02,SW,223,0.0,0.0,74,0.00,,,0.01,Wunderground v.1.15,2013-07-08 23:02:00,
2013-07-08 19:14:00,77.6,69.8,30.02,SW,223,0.0,0.0,77,0.00,,,0.01,Wunderground v.1.15,2013-07-08 23:14:00,
2013-07-08 19:22:00,77.0,69.6,30.02,SW,223,0.0,0.0,78,0.00,,,0.01,Wunderground v.1.15,2013-07-08 23:22:00,
2013-07-08 19:28:00,76.6,69.6,30.02,SW,223,0.0,0.0,79,0.00,,,0.01,Wunderground v.1.15,2013-07-08 23:28:00,
2013-07-08 19:34:00,75.8,70.3,30.03,SW,223,0.0,0.0,83,0.00,,,0.01,Wunderground v.1.15,2013-07-08 23:34:00,
2013-07-08 19:40:00,75.3,69.1,30.03,SW,223,0.0,0.0,81,0.00,,,0.01,Wunderground v.1.15,2013-07-08 23:40:00,
2013-07-08 19:46:00,74.6,69.1,30.03,SW,223,0.0,0.0,83,0.00,,,0.01,Wunderground v.1.15,2013-07-08 23:46:00,
2013-07-08 19:52:00,73.7,68.9,30.03,SW,223,0.0,0.0,85,0.00,,,0.01,Wunderground v.1.15,2013-07-08 23:52:00,
2013-07-08 19:58:00,73.4,68.6,30.03,SW,223,0.0,0.0,85,0.00,,,0.01,Wunderground v.1.15,2013-07-08 23:58:00,
2013-07-08 20:04:00,73.5,68.7,30.03,SW,223,0.0,0.0,85,0.00,,,0.01,Wunderground v.1.15,2013-07-09 00:04:00,
2013-07-08 20:10:00,73.1,68.3,30.04,SW,223,0.0,0.0,85,0.00,,,0.01,Wunderground v.1.15,2013-07-09 00:10:00,
2013-07-08 20:16:00,72.5,68.1,30.04,SW,223,0.0,0.0,86,0.00,,,0.01,Wunderground v.1.15,2013-07-09 00:16:00,
2013-07-08 20:24:00,72.0,67.6,30.05,SW,223,0.0,0.0,86,0.00,,,0.01,Wunderground v.1.15,2013-07-09 00:24:00,
2013-07-08 20:32:00,71.6,67.2,30.05,SW,223,0.0,0.0,86,0.00,,,0.01,Wunderground v.1.15,2013-07-09 00:32:00,
2013-07-08 20:44:00,70.6,66.5,30.05,SW,223,0.0,0.0,87,0.00,,,0.01,Wunderground v.1.15,2013-07-09 00:44:00,
2013-07-08 20:56:00,69.3,65.3,30.05,SW,223,1.0,2.0,87,0.00,,,0.01,Wunderground v.1.15,2013-07-09 00:56:00,
2013-07-08 21:08:00,68.2,64.5,30.05,SW,223,0.0,0.0,88,0.00,,,0.01,Wunderground v.1.15,2013-07-09 01:08:00,
2013-07-08 21:14:00,67.7,64.0,30.05,SW,223,0.0,0.0,88,0.00,,,0.01,Wunderground v.1.15,2013-07-09 01:14:00,
2013-07-08 21:20:00,67.3,63.6,30.05,SW,223,0.0,2.0,88,0.00,,,0.01,Wunderground v.1.15,2013-07-09 01:20:00,
2013-07-08 21:26:00,66.9,63.6,30.05,SW,223,0.0,2.0,89,0.00,,,0.01,Wunderground v.1.15,2013-07-09 01:26:00,
2013-07-08 21:32:00,66.5,63.2,30.05,SW,223,0.0,3.0,89,0.00,,,0.01,Wunderground v.1.15,2013-07-09 01:32:00,
2013-07-08 21:38:00,66.8,64.1,30.05,SW,224,2.0,3.0,91,0.00,,,0.01,Wunderground v.1.15,2013-07-09 01:38:00,
2013-07-08 21:50:00,66.3,63.3,30.05,SW,224,0.0,0.0,90,0.00,,,0.01,Wunderground v.1.15,2013-07-09 01:50:00,
2013-07-08 21:56:00,65.9,63.2,30.06,SW,224,0.0,0.0,91,0.00,,,0.01,Wunderground v.1.15,2013-07-09 01:56:00,
2013-07-08 22:02:00,65.6,62.9,30.06,SW,224,0.0,0.0,91,0.00,,,0.01,Wunderground v.1.15,2013-07-09 02:02:00,
2013-07-08 22:14:00,65.3,62.6,30.06,SW,224,0.0,0.0,91,0.00,,,0.01,Wunderground v.1.15,2013-07-09 02:14:00,
2013-07-08 22:24:00,65.6,63.2,30.07,SW,224,0.0,0.0,92,0.00,,,0.01,Wunderground v.1.15,2013-07-09 02:24:00,
2013-07-08 22:34:00,65.7,63.3,30.07,SW,224,0.0,0.0,92,0.00,,,0.01,Wunderground v.1.15,2013-07-09 02:34:00,
2013-07-08 22:40:00,65.7,63.3,30.07,SW,224,0.0,0.0,92,0.00,,,0.01,Wunderground v.1.15,2013-07-09 02:40:00,
2013-07-08 22:46:00,65.6,63.2,30.07,SW,224,0.0,0.0,92,0.00,,,0.01,Wunderground v.1.15,2013-07-09 02:46:00,
2013-07-08 22:52:00,65.4,63.0,30.07,SW,224,0.0,0.0,92,0.00,,,0.01,Wunderground v.1.15,2013-07-09 02:52:00,
2013-07-08 22:58:00,65.3,62.9,30.07,SW,224,1.0,2.0,92,0.00,,,0.01,Wunderground v.1.15,2013-07-09 02:58:00,
2013-07-08 23:04:00,65.2,63.1,30.07,SW,225,1.0,3.0,93,0.00,,,0.01,Wunderground v.1.15,2013-07-09 03:04:00,
2013-07-08 23:14:00,65.6,63.5,30.07,SW,225,0.0,1.0,93,0.00,,,0.01,Wunderground v.1.15,2013-07-09 03:14:00,
2013-07-08 23:20:00,65.3,63.2,30.06,SW,225,0.0,0.0,93,0.00,,,0.01,Wunderground v.1.15,2013-07-09 03:20:00,
2013-07-08 23:26:00,65.7,63.9,30.07,SW,224,1.0,1.0,94,0.00,,,0.01,Wunderground v.1.15,2013-07-09 03:26:00,
2013-07-08 23:36:00,65.7,63.9,30.07,SW,222,1.0,1.0,94,0.00,,,0.01,Wunderground v.1.15,2013-07-09 03:36:00,
2013-07-08 23:42:00,65.5,63.4,30.07,SW,223,0.0,1.0,93,0.00,,,0.01,Wunderground v.1.15,2013-07-09 03:42:00,
2013-07-08 23:54:00,65.5,63.4,30.06,SW,226,1.0,2.0,93,0.00,,,0.01,Wunderground v.1.15,2013-07-09 03:54:00,